Eagletown, Oklahoma
Current Conditions -  °F | °C
As of 9:53 PM on Friday 24 Oct 2014 (Local Time) from KDEQ Reporting Station
Moderate Fog Moderate Fog  
Wind Chill: 59°   Ceiling: 300
Heat Index: 59°   Visibility: 0.25mi
Dew Point: 59°   Wind: 0mph
Humidity: 100%   Direction: NA
Pressure: 30.1"   Gusts: NA
Location:  34.03°N, 94.58°W
Report Text: KDEQ 250253Z AUTO 00000KT 1/4SM FG VV003 15/15 A3010 RMK AO2 SLP191 T01500150 51012
Loading
Personal Weather Stations






























Interactive Weather Map
Tropical Storm Tracking
New forecast layout! Learn more

10-Day Weather Forecast

Advertisements
Track Severe Weather on mobile